Latest Weather Observations for Mangrove Mountain

IDN60901

Issued at 10:12 pm EST Thursday 30 July 2015 (issued every 10 minutes, with the page automatically refreshed every 10 minutes)

About weather observations | Map of Sydney area stations | Latest observations for Sydney area | Other Formats
Station Details ID: 061375 Name: MANGROVE MOUNTAIN AWS Lat: -33.29 Lon: 151.21 Height: 305.0 m
Data from the previous 72 hours. | See also: Recent months at Mangrove Mountain
Date/Time
EST
Tmp

°C
App
Tmp
°C
Dew
Point
°C
Rel
Hum
%
Delta-T

°C
Wind Press
QNH
hPa
Press
MSL
hPa
Rain
since
9 am
mm
Dir
 
Spd
km/h
Gust
km/h
Spd
kts
Gust
kts
30/10:00pm 12.2 8.2 4.9 61 3.4 WNW 15 28 8 15 - - 0.0
30/09:30pm 12.2 8.5 4.7 60 3.5 WNW 13 24 7 13 - - 0.0
30/09:00pm 12.3 8.2 4.5 59 3.6 WNW 15 26 8 14 - - 0.0
30/08:30pm 12.2 9.3 4.9 61 3.4 WNW 9 17 5 9 - - 0.0
30/08:00pm 12.6 10.1 4.6 58 3.7 WNW 7 17 4 9 - - 0.0
30/07:30pm 13.2 9.9 4.6 56 4.0 NW 11 20 6 11 - - 0.0
30/07:00pm 12.9 9.6 4.3 56 4.0 NW 11 22 6 12 - - 0.0
30/06:30pm 12.7 9.8 4.7 58 3.7 NW 9 17 5 9 - - 0.0
30/06:00pm 12.8 10.4 5.2 60 3.6 NW 7 13 4 7 - - 0.0
30/05:30pm 12.8 10.5 5.0 59 3.7 NNW 6 11 3 6 - - 0.0
30/05:00pm 13.5 11.0 4.9 56 4.1 NNW 7 15 4 8 - - 0.0
30/04:30pm 14.2 11.7 4.8 53 4.4 NNW 7 13 4 7 - - 0.0
30/04:00pm 15.0 11.7 4.4 49 5.0 NNW 11 24 6 13 - - 0.0
30/03:30pm 16.4 12.7 4.4 45 5.7 NNW 13 28 7 15 - - 0.0
30/03:00pm 16.8 13.0 3.8 42 6.1 NW 13 22 7 12 - - 0.0
30/02:30pm 17.1 12.9 3.8 41 6.3 NNW 15 24 8 13 - - 0.0
30/02:00pm 17.4 13.3 4.4 42 6.2 NW 15 24 8 13 - - 0.0
30/01:30pm 17.5 13.5 4.8 43 6.2 NW 15 28 8 15 - - 0.0
30/01:00pm 16.8 12.4 4.8 45 5.8 NNW 17 30 9 16 - - 0.0
30/12:30pm 16.4 12.3 4.4 45 5.7 NW 15 24 8 13 - - 0.0
30/12:00pm 15.7 11.6 6.2 53 4.7 NW 17 30 9 16 - - 0.0
30/11:30am 15.1 11.8 6.4 56 4.3 NW 13 26 7 14 - - 0.0
30/11:00am 14.4 11.2 7.0 61 3.7 NW 13 22 7 12 - - 0.0
30/10:30am 13.5 10.4 7.1 65 3.2 NW 13 20 7 11 - - 0.0
30/10:00am 12.7 10.7 8.6 76 2.1 NW 9 17 5 9 - - 0.0
30/09:30am 10.7 8.7 8.6 87 1.0 NNW 9 17 5 9 - - 0.0
30/09:00am 9.3 7.3 8.5 95 0.4 NW 9 15 5 8 - - 0.2
30/08:30am 8.6 7.0 8.6 100 0.0 NW 7 13 4 7 - - 0.2
30/08:00am 7.8 6.5 7.8 100 0.0 NW 4 6 2 3 - - 0.2
30/07:30am 6.8 5.3 6.8 100 0.0 NNW 4 7 2 4 - - 0.0
30/07:00am 6.0 4.7 6.0 100 0.0 NNW 2 6 1 3 - - 0.0
30/06:30am 5.8 4.1 5.8 100 0.0 NW 4 6 2 3 - - 0.0
30/06:00am 5.6 3.8 5.6 100 0.0 NW 4 6 2 3 - - 0.0
30/05:30am 5.2 3.4 5.2 100 0.0 NW 4 6 2 3 - - 0.0
30/05:00am 5.7 4.0 5.7 100 0.0 NW 4 6 2 3 - - 0.0
30/04:30am 6.7 5.2 6.7 100 0.0 NW 4 6 2 3 - - 0.0
30/04:00am 5.9 4.2 5.9 100 0.0 NW 4 4 2 2 - - 0.0
30/03:30am 6.0 4.7 5.9 99 0.0 NNW 2 4 1 2 - - 0.0
30/03:00am 6.4 4.8 6.3 99 0.0 NNW 4 6 2 3 - - 0.0
30/02:30am 6.8 4.9 6.5 98 0.1 NNW 6 6 3 3 - - 0.0
30/02:00am 6.9 5.2 5.8 93 0.5 NNW 4 6 2 3 - - 0.0
30/01:30am 8.3 6.9 7.1 92 0.6 N 4 6 2 3 - - 0.0
30/01:00am 9.5 8.1 7.4 87 1.0 NNW 4 7 2 4 - - 0.0
30/12:30am 10.3 8.2 8.1 86 1.1 NNE 9 13 5 7 - - 0.0
30/12:00am 10.2 8.2 8.5 89 0.8 NNE 9 15 5 8 - - 0.0
 
Date/Time
EST
Tmp

°C
App
Tmp
°C
Dew
Point
°C
Rel
Hum
%
Delta-T

°C
Wind Press
QNH
hPa
Press
MSL
hPa
Rain
since
9 am
mm
Dir
 
Spd
km/h
Gust
km/h
Spd
kts
Gust
kts
29/11:30pm 9.6 7.5 8.2 91 0.7 NE 9 15 5 8 - - 0.0
29/11:00pm 9.7 8.1 8.0 89 0.8 NNE 6 9 3 5 - - 0.0
29/10:30pm 9.6 7.8 7.9 89 0.8 NE 7 11 4 6 - - 0.0
29/10:00pm 9.2 7.4 7.3 88 0.9 NE 6 9 3 5 - - 0.0
29/09:30pm 9.7 8.1 8.1 90 0.8 NE 6 9 3 5 - - 0.0
29/09:00pm 8.9 7.6 7.5 91 0.7 NE 4 7 2 4 - - 0.0
29/08:30pm 9.4 7.8 8.0 91 0.7 NE 6 9 3 5 - - 0.0
29/08:00pm 9.1 7.5 7.9 92 0.6 ENE 6 9 3 5 - - 0.0
29/07:30pm 8.9 7.3 8.0 94 0.4 ENE 6 9 3 5 - - 0.0
29/07:00pm 7.6 6.1 6.7 94 0.4 ENE 4 7 2 4 - - 0.0
29/06:30pm 7.9 6.4 6.7 92 0.6 E 4 6 2 3 - - 0.0
29/06:00pm 8.4 6.8 6.5 88 0.9 E 4 6 2 3 - - 0.0
29/05:30pm 9.7 8.2 7.0 83 1.3 E 4 6 2 3 - - 0.0
29/05:00pm 11.5 10.1 7.2 75 2.1 E 4 7 2 4 - - 0.0
29/04:30pm 14.0 12.4 6.4 60 3.7 ENE 4 6 2 3 - - 0.0
29/04:00pm 15.9 14.5 7.4 57 4.3 NW 4 6 2 3 - - 0.0
29/03:30pm 14.4 13.8 7.2 62 3.6 CALM 0 0 0 0 - - 0.0
29/03:00pm 15.7 14.1 6.4 54 4.6 WNW 4 9 2 5 - - 0.0
29/02:30pm 16.0 14.6 7.2 56 4.4 NE 4 13 2 7 - - 0.0
29/02:00pm 15.1 13.5 6.4 56 4.3 E 4 7 2 4 - - 0.0
29/01:30pm 14.7 13.3 7.3 61 3.7 S 4 7 2 4 - - 0.0
29/01:00pm 14.1 12.7 7.4 64 3.3 SE 4 6 2 3 - - 0.0
29/12:30pm 13.1 11.2 6.9 66 3.0 S 6 7 3 4 - - 0.0
29/12:00pm 13.7 12.6 6.8 63 3.4 SSW 2 9 1 5 - - 0.0
29/11:30am 13.4 11.7 7.6 68 2.9 W 6 9 3 5 - - 0.0
29/11:00am 12.5 10.8 7.6 72 2.4 W 6 11 3 6 - - 0.0
29/10:30am 11.0 9.0 6.2 72 2.3 WNW 6 9 3 5 - - 0.0
29/10:00am 9.6 7.5 5.8 77 1.8 WSW 6 9 3 5 - - 0.0
29/09:30am 9.1 6.8 5.7 79 1.6 WNW 7 9 4 5 - - 0.0
29/09:00am 7.6 5.2 5.4 86 1.0 NW 7 9 4 5 - - 0.0
29/08:30am 7.3 5.7 6.4 94 0.4 WNW 4 6 2 3 - - 0.0
29/08:00am 5.4 3.6 5.4 100 0.0 WNW 4 6 2 3 - - 0.0
29/07:30am 3.1 0.9 3.1 100 0.0 WNW 4 6 2 3 - - 0.0
29/07:00am 2.3 0.7 2.3 100 0.0 CALM 0 0 0 0 - - 0.0
29/06:30am 2.4 0.8 2.4 100 0.0 CALM 0 4 0 2 - - 0.0
29/06:00am 1.9 0.2 1.8 99 0.0 CALM 0 0 0 0 - - 0.0
29/05:30am 2.3 0.3 2.2 99 0.0 WNW 2 2 1 1 - - 0.0
29/05:00am 1.9 -0.6 1.5 97 0.2 NW 4 4 2 2 - - 0.0
29/04:30am 2.1 0.3 1.5 96 0.2 CALM 0 0 0 0 - - 0.0
29/04:00am 3.3 1.0 3.0 98 0.1 NW 4 6 2 3 - - 0.0
29/03:30am 3.2 0.9 2.6 96 0.2 NW 4 6 2 3 - - 0.0
29/03:00am 4.4 2.0 4.1 98 0.1 NW 6 11 3 6 - - 0.0
29/02:30am 4.4 2.0 4.3 99 0.0 NW 6 9 3 5 - - 0.0
29/02:00am 3.8 1.6 3.5 98 0.1 WNW 4 9 2 5 - - 0.0
29/01:30am 3.5 1.6 3.1 97 0.2 WNW 2 4 1 2 - - 0.0
29/01:00am 3.9 1.7 3.6 98 0.1 NW 4 4 2 2 - - 0.0
29/12:30am 3.7 1.9 3.4 98 0.1 SW 2 4 1 2 - - 0.0
29/12:00am 3.4 1.5 2.8 96 0.2 SE 2 2 1 1 - - 0.0
 
Date/Time
EST
Tmp

°C
App
Tmp
°C
Dew
Point
°C
Rel
Hum
%
Delta-T

°C
Wind Press
QNH
hPa
Press
MSL
hPa
Rain
since
9 am
mm
Dir
 
Spd
km/h
Gust
km/h
Spd
kts
Gust
kts
28/11:30pm 3.5 1.9 2.6 94 0.4 CALM 0 0 0 0 - - 0.0
28/11:00pm 3.8 2.3 2.8 93 0.4 CALM 0 2 0 1 - - 0.0
28/10:30pm 4.0 2.4 2.4 89 0.7 CALM 0 0 0 0 - - 0.0
28/10:00pm 5.1 3.6 2.8 85 1.0 CALM 0 4 0 2 - - 0.0
28/09:30pm 6.4 4.2 3.2 80 1.4 SE 4 4 2 2 - - 0.0
28/09:00pm 6.9 4.9 4.4 84 1.1 SSE 4 6 2 3 - - 0.0
28/08:30pm 6.7 4.6 3.9 82 1.2 ESE 4 6 2 3 - - 0.0
28/08:00pm 7.7 5.7 4.5 80 1.4 SE 4 6 2 3 - - 0.0
28/07:30pm 8.3 6.5 5.2 81 1.4 SE 4 7 2 4 - - 0.0
28/07:00pm 6.8 4.8 4.6 86 1.0 ESE 4 4 2 2 - - 0.0
28/06:30pm 7.1 5.1 4.6 84 1.1 ESE 4 4 2 2 - - 0.0
28/06:00pm 7.0 4.9 4.1 82 1.3 ESE 4 6 2 3 - - 0.0
28/05:30pm 9.1 7.1 4.5 73 2.1 ESE 4 6 2 3 - - 0.0
28/05:00pm 10.9 8.9 4.4 64 3.0 SE 4 7 2 4 - - 0.0
28/04:30pm 12.5 10.7 3.5 54 4.1 SSW 2 6 1 3 - - 0.0
28/04:00pm 13.2 10.4 3.3 51 4.5 S 7 13 4 7 - - 0.0
28/03:30pm 13.5 10.6 2.4 47 5.0 SSE 7 13 4 7 - - 0.0
28/03:00pm 14.1 11.2 2.4 45 5.3 SW 7 17 4 9 - - 0.0
28/02:30pm 14.0 10.9 1.6 43 5.5 SW 7 19 4 10 - - 0.0
28/02:00pm 14.1 11.2 2.4 45 5.3 SW 7 15 4 8 - - 0.0
28/01:30pm 14.1 11.2 2.7 46 5.2 WSW 7 13 4 7 - - 0.0
28/01:00pm 14.3 11.8 3.7 49 4.9 SSW 6 11 3 6 - - 0.0
28/12:30pm 13.6 10.7 2.5 47 5.0 WSW 7 17 4 9 - - 0.0
28/12:00pm 13.1 10.2 2.4 48 4.8 SSW 7 11 4 6 - - 0.0
28/11:30am 12.3 9.0 2.5 51 4.3 W 9 15 5 8 - - 0.0
28/11:00am 11.7 8.8 2.5 53 4.1 W 7 15 4 8 - - 0.0
28/10:30am 11.1 8.3 3.2 58 3.5 WNW 7 13 4 7 - - 0.0
28/10:00am 9.2 6.3 2.8 64 2.8 WNW 7 11 4 6 - - 0.0
28/09:30am 9.0 6.0 2.3 63 2.9 WNW 7 13 4 7 - - 0.0
28/09:00am 7.8 4.8 2.1 67 2.4 WNW 7 9 4 5 - - 0.0
28/08:30am 6.4 3.4 2.3 75 1.7 NW 7 11 4 6 - - 0.0
28/08:00am 4.2 1.3 1.7 84 1.0 NW 6 9 3 5 - - 0.0
28/07:30am 1.9 -1.1 0.7 92 0.5 NW 6 9 3 5 - - 0.0
28/07:00am 0.7 -2.4 0.0 95 0.3 NW 6 9 3 5 - - 0.0
28/06:30am 0.6 -2.6 -0.3 94 0.3 NW 6 9 3 5 - - 0.0
28/06:00am 1.0 -1.8 -0.1 92 0.4 WNW 4 7 2 4 - - 0.0
28/05:30am 1.0 -1.8 -0.5 90 0.5 WNW 4 6 2 3 - - 0.0
28/05:00am 1.7 -1.4 0.1 89 0.6 WNW 6 7 3 4 - - 0.0
28/04:30am 2.0 -0.7 0.1 87 0.7 WNW 4 7 2 4 - - 0.0
28/04:00am 1.8 -1.3 0.2 89 0.6 WNW 6 11 3 6 - - 0.0
28/03:30am 2.0 -1.0 0.5 90 0.6 NW 6 7 3 4 - - 0.0
28/03:00am 1.4 -1.4 -0.1 90 0.6 WNW 4 6 2 3 - - 0.0
28/02:30am 1.6 -1.2 -0.3 87 0.7 NW 4 6 2 3 - - 0.0
28/02:00am 2.6 -0.6 0.5 86 0.8 WNW 7 9 4 5 - - 0.0
28/01:30am 3.2 0.2 1.1 86 0.8 NW 6 9 3 5 - - 0.0
28/01:00am 2.4 -0.6 0.6 88 0.7 WNW 6 7 3 4 - - 0.0
28/12:30am 2.9 -0.1 0.8 86 0.8 WNW 6 9 3 5 - - 0.0
28/12:00am 3.3 0.6 0.4 81 1.1 WNW 4 7 2 4 - - 0.0
 
Date/Time
EST
Tmp

°C
App
Tmp
°C
Dew
Point
°C
Rel
Hum
%
Delta-T

°C
Wind Press
QNH
hPa
Press
MSL
hPa
Rain
since
9 am
mm
Dir
 
Spd
km/h
Gust
km/h
Spd
kts
Gust
kts
27/11:30pm 3.7 0.7 1.1 83 1.0 WNW 6 9 3 5 - - 0.0
27/11:00pm 2.5 -0.2 0.1 84 0.9 WNW 4 6 2 3 - - 0.0
27/10:30pm 3.1 0.4 0.2 81 1.1 WNW 4 6 2 3 - - 0.0

Latest Capital City Observations: Canberra | Sydney | Melbourne | Brisbane | Adelaide | Perth | Hobart | Darwin

Other Formats:

Comma delimited format used in spreadsheet applications
http://www.bom.gov.au/fwo/IDN60901/IDN60901.95774.axf

JavaScript Object Notation format (JSON) in row-major order
http://www.bom.gov.au/fwo/IDN60901/IDN60901.95774.json